
<gpx xmlns="http://www.topografix.com/GPX/1/1" xmlns:gpxx="http://www.garmin.com/xmlschemas/GpxExtensions/v3" xmlns:xsi="http://www.w3.org/2001/XMLSchema-instance" version="1.1" creator="Adze - https://getadze.com/" xsi:schemaLocation="http://www.topografix.com/GPX/1/1 http://www.topografix.com/GPX/1/1/gpx.xsd http://www.garmin.com/xmlschemas/GpxExtensions/v3 http://www.garmin.com/xmlschemas/GpxExtensionsv3.xsd">
    <metadata>
        <name>Untitled Document</name>
        <link href="http://www.garmin.com"></link>
        <time>2018-02-27T06:08:33.763Z</time>
    </metadata>
    <wpt lon="101.087952" lat="13.168718">
        <name>Firefly Chalet</name>
        <sym>Lodging</sym>
        <extensions>
            <gpxx:WaypointExtension xmlns:gpxx="http://www.garmin.com/xmlschemas/GpxExtensions/v3">
                <gpxx:DisplayMode>SymbolAndName</gpxx:DisplayMode>
            </gpxx:WaypointExtension>
        </extensions>
    </wpt>
    <wpt lon="101.053104" lat="13.192134">
        <time>2012-07-29T08:41:50Z</time>
        <name>Water Sun</name>
        <cmt>Road</cmt>
        <desc>Road</desc>
        <sym>Drinking Water</sym>
        <extensions>
            <gpxx:WaypointExtension xmlns:gpxx="http://www.garmin.com/xmlschemas/GpxExtensions/v3">
                <gpxx:DisplayMode>SymbolAndName</gpxx:DisplayMode>
            </gpxx:WaypointExtension>
        </extensions>
    </wpt>
    <trk>
        <name>Sun</name>
        <extensions>
            <gpxx:TrackExtension xmlns:gpxx="http://www.garmin.com/xmlschemas/GpxExtensions/v3">
                <gpxx:DisplayColor>Green</gpxx:DisplayColor>
            </gpxx:TrackExtension>
        </extensions>
        <trkseg>
            <trkpt lon="101.086451" lat="13.167056">
                <ele>114.053589</ele>
                <time>2012-07-29T02:58:25Z</time>
            </trkpt>
            <trkpt lon="101.086732" lat="13.167971">
                <ele>104.440430</ele>
                <time>2012-07-29T02:58:54Z</time>
            </trkpt>
            <trkpt lon="101.087186" lat="13.167916">
                <ele>103.959717</ele>
                <time>2012-07-29T02:59:07Z</time>
            </trkpt>
            <trkpt lon="101.087513" lat="13.168192">
                <ele>103.479004</ele>
                <time>2012-07-29T02:59:18Z</time>
            </trkpt>
            <trkpt lon="101.087862" lat="13.168196">
                <ele>103.479004</ele>
                <time>2012-07-29T02:59:31Z</time>
            </trkpt>
            <trkpt lon="101.087947" lat="13.168741">
                <ele>102.998291</ele>
                <time>2012-07-29T02:59:47Z</time>
            </trkpt>
            <trkpt lon="101.087307" lat="13.168969">
                <ele>107.324341</ele>
                <time>2012-07-29T03:00:10Z</time>
            </trkpt>
            <trkpt lon="101.084322" lat="13.169312">
                <ele>100.114502</ele>
                <time>2012-07-29T03:00:58Z</time>
            </trkpt>
            <trkpt lon="101.083026" lat="13.169060">
                <ele>98.672485</ele>
                <time>2012-07-29T03:01:18Z</time>
            </trkpt>
            <trkpt lon="101.081737" lat="13.168412">
                <ele>97.711182</ele>
                <time>2012-07-29T03:01:38Z</time>
            </trkpt>
            <trkpt lon="101.079702" lat="13.166860">
                <ele>94.346558</ele>
                <time>2012-07-29T03:02:11Z</time>
            </trkpt>
            <trkpt lon="101.078383" lat="13.165820">
                <ele>86.175293</ele>
                <time>2012-07-29T03:02:38Z</time>
            </trkpt>
            <trkpt lon="101.076706" lat="13.165189">
                <ele>88.578735</ele>
                <time>2012-07-29T03:03:13Z</time>
            </trkpt>
            <trkpt lon="101.075998" lat="13.165168">
                <ele>90.981934</ele>
                <time>2012-07-29T03:03:31Z</time>
            </trkpt>
            <trkpt lon="101.075219" lat="13.165178">
                <ele>89.059326</ele>
                <time>2012-07-29T03:03:47Z</time>
            </trkpt>
            <trkpt lon="101.073111" lat="13.165262">
                <ele>89.059326</ele>
                <time>2012-07-29T03:04:23Z</time>
            </trkpt>
            <trkpt lon="101.072748" lat="13.164754">
                <ele>89.059326</ele>
                <time>2012-07-29T03:04:37Z</time>
            </trkpt>
            <trkpt lon="101.071950" lat="13.165223">
                <ele>90.020630</ele>
                <time>2012-07-29T03:05:01Z</time>
            </trkpt>
            <trkpt lon="101.070805" lat="13.164685">
                <ele>89.059326</ele>
                <time>2012-07-29T03:05:26Z</time>
            </trkpt>
            <trkpt lon="101.069173" lat="13.164837">
                <ele>87.136597</ele>
                <time>2012-07-29T03:05:56Z</time>
            </trkpt>
            <trkpt lon="101.068568" lat="13.164217">
                <ele>85.213989</ele>
                <time>2012-07-29T03:06:29Z</time>
            </trkpt>
            <trkpt lon="101.068959" lat="13.164619">
                <ele>83.771973</ele>
                <time>2012-07-29T03:07:15Z</time>
            </trkpt>
            <trkpt lon="101.068503" lat="13.164208">
                <ele>85.213989</ele>
                <time>2012-07-29T03:07:42Z</time>
            </trkpt>
            <trkpt lon="101.068288" lat="13.164255">
                <ele>87.617188</ele>
                <time>2012-07-29T03:07:55Z</time>
            </trkpt>
            <trkpt lon="101.067210" lat="13.164108">
                <ele>90.020630</ele>
                <time>2012-07-29T03:08:30Z</time>
            </trkpt>
            <trkpt lon="101.066355" lat="13.164053">
                <ele>90.981934</ele>
                <time>2012-07-29T03:09:04Z</time>
            </trkpt>
            <trkpt lon="101.066256" lat="13.164100">
                <ele>91.462524</ele>
                <time>2012-07-29T03:09:09Z</time>
            </trkpt>
            <trkpt lon="101.066748" lat="13.165247">
                <ele>94.346558</ele>
                <time>2012-07-29T03:09:59Z</time>
            </trkpt>
            <trkpt lon="101.067119" lat="13.166106">
                <ele>96.269287</ele>
                <time>2012-07-29T03:10:30Z</time>
            </trkpt>
            <trkpt lon="101.067833" lat="13.167692">
                <ele>94.827148</ele>
                <time>2012-07-29T03:12:12Z</time>
            </trkpt>
            <trkpt lon="101.067471" lat="13.167860">
                <ele>125.108765</ele>
                <time>2012-07-29T03:12:29Z</time>
            </trkpt>
            <trkpt lon="101.067204" lat="13.168521">
                <ele>100.595093</ele>
                <time>2012-07-29T03:13:44Z</time>
            </trkpt>
            <trkpt lon="101.067970" lat="13.170052">
                <ele>93.865845</ele>
                <time>2012-07-29T03:14:51Z</time>
            </trkpt>
            <trkpt lon="101.067832" lat="13.170312">
                <ele>98.191895</ele>
                <time>2012-07-29T03:15:05Z</time>
            </trkpt>
            <trkpt lon="101.067214" lat="13.170957">
                <ele>103.959717</ele>
                <time>2012-07-29T03:15:50Z</time>
            </trkpt>
            <trkpt lon="101.065954" lat="13.171457">
                <ele>107.805054</ele>
                <time>2012-07-29T03:16:46Z</time>
            </trkpt>
            <trkpt lon="101.065980" lat="13.171806">
                <ele>108.766235</ele>
                <time>2012-07-29T03:17:04Z</time>
            </trkpt>
            <trkpt lon="101.065089" lat="13.172416">
                <ele>113.092285</ele>
                <time>2012-07-29T03:17:59Z</time>
            </trkpt>
            <trkpt lon="101.063646" lat="13.173679">
                <ele>122.705444</ele>
                <time>2012-07-29T03:19:17Z</time>
            </trkpt>
            <trkpt lon="101.063516" lat="13.173487">
                <ele>122.705444</ele>
                <time>2012-07-29T03:19:30Z</time>
            </trkpt>
            <trkpt lon="101.063538" lat="13.172425">
                <ele>117.898804</ele>
                <time>2012-07-29T03:20:02Z</time>
            </trkpt>
            <trkpt lon="101.063229" lat="13.171606">
                <ele>114.053589</ele>
                <time>2012-07-29T03:20:22Z</time>
            </trkpt>
            <trkpt lon="101.063258" lat="13.171200">
                <ele>112.130981</ele>
                <time>2012-07-29T03:20:31Z</time>
            </trkpt>
            <trkpt lon="101.063984" lat="13.170603">
                <ele>108.766235</ele>
                <time>2012-07-29T03:20:55Z</time>
            </trkpt>
            <trkpt lon="101.064015" lat="13.170453">
                <ele>108.766235</ele>
                <time>2012-07-29T03:20:59Z</time>
            </trkpt>
            <trkpt lon="101.063931" lat="13.169857">
                <ele>106.363037</ele>
                <time>2012-07-29T03:21:15Z</time>
            </trkpt>
            <trkpt lon="101.062963" lat="13.167917">
                <ele>99.633789</ele>
                <time>2012-07-29T03:22:05Z</time>
            </trkpt>
            <trkpt lon="101.060826" lat="13.165758">
                <ele>95.788452</ele>
                <time>2012-07-29T03:23:23Z</time>
            </trkpt>
            <trkpt lon="101.060768" lat="13.165560">
                <ele>93.865845</ele>
                <time>2012-07-29T03:24:20Z</time>
            </trkpt>
            <trkpt lon="101.060636" lat="13.165615">
                <ele>99.633789</ele>
                <time>2012-07-29T03:24:32Z</time>
            </trkpt>
            <trkpt lon="101.060094" lat="13.164820">
                <ele>95.307739</ele>
                <time>2012-07-29T03:25:05Z</time>
            </trkpt>
            <trkpt lon="101.061185" lat="13.164358">
                <ele>91.462524</ele>
                <time>2012-07-29T03:25:48Z</time>
            </trkpt>
            <trkpt lon="101.060142" lat="13.164740">
                <ele>93.865845</ele>
                <time>2012-07-29T03:26:27Z</time>
            </trkpt>
            <trkpt lon="101.060743" lat="13.165723">
                <ele>93.865845</ele>
                <time>2012-07-29T03:27:01Z</time>
            </trkpt>
            <trkpt lon="101.058448" lat="13.167622">
                <ele>104.921020</ele>
                <time>2012-07-29T03:28:48Z</time>
            </trkpt>
            <trkpt lon="101.058276" lat="13.167522">
                <ele>105.882446</ele>
                <time>2012-07-29T03:28:57Z</time>
            </trkpt>
            <trkpt lon="101.058037" lat="13.166993">
                <ele>106.363037</ele>
                <time>2012-07-29T03:29:13Z</time>
            </trkpt>
            <trkpt lon="101.057719" lat="13.166507">
                <ele>105.882446</ele>
                <time>2012-07-29T03:29:31Z</time>
            </trkpt>
            <trkpt lon="101.057296" lat="13.166372">
                <ele>103.479004</ele>
                <time>2012-07-29T03:29:45Z</time>
            </trkpt>
            <trkpt lon="101.057019" lat="13.166091">
                <ele>99.153076</ele>
                <time>2012-07-29T03:29:56Z</time>
            </trkpt>
            <trkpt lon="101.056861" lat="13.166090">
                <ele>97.711182</ele>
                <time>2012-07-29T03:30:02Z</time>
            </trkpt>
            <trkpt lon="101.056588" lat="13.166593">
                <ele>94.346558</ele>
                <time>2012-07-29T03:30:40Z</time>
            </trkpt>
            <trkpt lon="101.055996" lat="13.166735">
                <ele>96.269287</ele>
                <time>2012-07-29T03:31:48Z</time>
            </trkpt>
            <trkpt lon="101.055724" lat="13.166539">
                <ele>97.230469</ele>
                <time>2012-07-29T03:32:14Z</time>
            </trkpt>
            <trkpt lon="101.055153" lat="13.166134">
                <ele>94.346558</ele>
                <time>2012-07-29T03:32:54Z</time>
            </trkpt>
            <trkpt lon="101.053941" lat="13.165848">
                <ele>94.346558</ele>
                <time>2012-07-29T03:33:59Z</time>
            </trkpt>
            <trkpt lon="101.053468" lat="13.165865">
                <ele>94.346558</ele>
                <time>2012-07-29T03:34:13Z</time>
            </trkpt>
            <trkpt lon="101.053406" lat="13.165889">
                <ele>93.865845</ele>
                <time>2012-07-29T03:34:15Z</time>
            </trkpt>
            <trkpt lon="101.051962" lat="13.167095">
                <ele>95.307739</ele>
                <time>2012-07-29T03:35:20Z</time>
            </trkpt>
            <trkpt lon="101.050914" lat="13.168781">
                <ele>102.037109</ele>
                <time>2012-07-29T03:36:22Z</time>
            </trkpt>
            <trkpt lon="101.050225" lat="13.169995">
                <ele>102.998291</ele>
                <time>2012-07-29T03:37:03Z</time>
            </trkpt>
            <trkpt lon="101.049556" lat="13.169270">
                <ele>100.595093</ele>
                <time>2012-07-29T03:37:36Z</time>
            </trkpt>
            <trkpt lon="101.048779" lat="13.169843">
                <ele>101.075684</ele>
                <time>2012-07-29T03:38:04Z</time>
            </trkpt>
            <trkpt lon="101.048743" lat="13.170831">
                <ele>103.479004</ele>
                <time>2012-07-29T03:38:33Z</time>
            </trkpt>
            <trkpt lon="101.048750" lat="13.175466">
                <ele>99.153076</ele>
                <time>2012-07-29T03:40:33Z</time>
            </trkpt>
            <trkpt lon="101.048241" lat="13.175745">
                <ele>98.191895</ele>
                <time>2012-07-29T03:40:49Z</time>
            </trkpt>
            <trkpt lon="101.047965" lat="13.176059">
                <ele>96.269287</ele>
                <time>2012-07-29T03:41:03Z</time>
            </trkpt>
            <trkpt lon="101.048013" lat="13.176546">
                <ele>93.865845</ele>
                <time>2012-07-29T03:41:19Z</time>
            </trkpt>
            <trkpt lon="101.048301" lat="13.177143">
                <ele>94.827148</ele>
                <time>2012-07-29T03:41:49Z</time>
            </trkpt>
            <trkpt lon="101.048814" lat="13.177117">
                <ele>95.788452</ele>
                <time>2012-07-29T03:42:49Z</time>
            </trkpt>
            <trkpt lon="101.048735" lat="13.178862">
                <ele>100.595093</ele>
                <time>2012-07-29T03:43:43Z</time>
            </trkpt>
            <trkpt lon="101.047596" lat="13.179423">
                <ele>92.904541</ele>
                <time>2012-07-29T03:44:22Z</time>
            </trkpt>
            <trkpt lon="101.047378" lat="13.179942">
                <ele>91.462524</ele>
                <time>2012-07-29T03:44:49Z</time>
            </trkpt>
            <trkpt lon="101.047325" lat="13.180606">
                <ele>91.943237</ele>
                <time>2012-07-29T03:45:20Z</time>
            </trkpt>
            <trkpt lon="101.046932" lat="13.180672">
                <ele>88.098022</ele>
                <time>2012-07-29T03:45:41Z</time>
            </trkpt>
            <trkpt lon="101.046945" lat="13.181128">
                <ele>87.136597</ele>
                <time>2012-07-29T03:46:11Z</time>
            </trkpt>
            <trkpt lon="101.047211" lat="13.181324">
                <ele>90.020630</ele>
                <time>2012-07-29T03:46:37Z</time>
            </trkpt>
            <trkpt lon="101.047288" lat="13.181610">
                <ele>94.346558</ele>
                <time>2012-07-29T03:46:55Z</time>
            </trkpt>
            <trkpt lon="101.047232" lat="13.181802">
                <ele>95.307739</ele>
                <time>2012-07-29T03:47:05Z</time>
            </trkpt>
            <trkpt lon="101.046782" lat="13.181773">
                <ele>95.788452</ele>
                <time>2012-07-29T03:47:22Z</time>
            </trkpt>
            <trkpt lon="101.046191" lat="13.181893">
                <ele>95.307739</ele>
                <time>2012-07-29T03:47:43Z</time>
            </trkpt>
            <trkpt lon="101.046329" lat="13.182417">
                <ele>92.423950</ele>
                <time>2012-07-29T03:48:05Z</time>
            </trkpt>
            <trkpt lon="101.045969" lat="13.182635">
                <ele>86.656006</ele>
                <time>2012-07-29T03:48:30Z</time>
            </trkpt>
            <trkpt lon="101.046165" lat="13.183333">
                <ele>94.827148</ele>
                <time>2012-07-29T03:49:44Z</time>
            </trkpt>
            <trkpt lon="101.046131" lat="13.183478">
                <ele>93.865845</ele>
                <time>2012-07-29T03:49:56Z</time>
            </trkpt>
            <trkpt lon="101.045613" lat="13.183835">
                <ele>89.059326</ele>
                <time>2012-07-29T03:50:22Z</time>
            </trkpt>
            <trkpt lon="101.045342" lat="13.184448">
                <ele>85.694580</ele>
                <time>2012-07-29T03:50:51Z</time>
            </trkpt>
            <trkpt lon="101.046541" lat="13.184490">
                <ele>99.633789</ele>
                <time>2012-07-29T03:52:38Z</time>
            </trkpt>
            <trkpt lon="101.046640" lat="13.184631">
                <ele>108.766235</ele>
                <time>2012-07-29T03:53:03Z</time>
            </trkpt>
            <trkpt lon="101.046825" lat="13.185047">
                <ele>107.324341</ele>
                <time>2012-07-29T03:53:49Z</time>
            </trkpt>
            <trkpt lon="101.046817" lat="13.185459">
                <ele>111.169556</ele>
                <time>2012-07-29T03:54:06Z</time>
            </trkpt>
            <trkpt lon="101.046679" lat="13.185731">
                <ele>109.727661</ele>
                <time>2012-07-29T03:54:23Z</time>
            </trkpt>
            <trkpt lon="101.046234" lat="13.185963">
                <ele>108.285645</ele>
                <time>2012-07-29T03:54:44Z</time>
            </trkpt>
            <trkpt lon="101.046034" lat="13.186233">
                <ele>105.401733</ele>
                <time>2012-07-29T03:54:59Z</time>
            </trkpt>
            <trkpt lon="101.046134" lat="13.186651">
                <ele>103.959717</ele>
                <time>2012-07-29T03:55:29Z</time>
            </trkpt>
            <trkpt lon="101.047198" lat="13.187215">
                <ele>104.440430</ele>
                <time>2012-07-29T03:56:56Z</time>
            </trkpt>
            <trkpt lon="101.047251" lat="13.187366">
                <ele>104.440430</ele>
                <time>2012-07-29T03:57:14Z</time>
            </trkpt>
            <trkpt lon="101.046898" lat="13.188001">
                <ele>102.037109</ele>
                <time>2012-07-29T03:57:55Z</time>
            </trkpt>
            <trkpt lon="101.047196" lat="13.188968">
                <ele>92.423950</ele>
                <time>2012-07-29T03:58:34Z</time>
            </trkpt>
            <trkpt lon="101.044870" lat="13.189539">
                <ele>81.368774</ele>
                <time>2012-07-29T03:59:45Z</time>
            </trkpt>
            <trkpt lon="101.044875" lat="13.189782">
                <ele>79.446045</ele>
                <time>2012-07-29T03:59:54Z</time>
            </trkpt>
            <trkpt lon="101.045518" lat="13.192391">
                <ele>76.562134</ele>
                <time>2012-07-29T04:00:55Z</time>
            </trkpt>
            <trkpt lon="101.045680" lat="13.192102">
                <ele>78.004028</ele>
                <time>2012-07-29T04:01:09Z</time>
            </trkpt>
            <trkpt lon="101.046072" lat="13.191774">
                <ele>80.407471</ele>
                <time>2012-07-29T04:01:28Z</time>
            </trkpt>
            <trkpt lon="101.047473" lat="13.190652">
                <ele>82.330078</ele>
                <time>2012-07-29T04:02:16Z</time>
            </trkpt>
            <trkpt lon="101.047913" lat="13.190555">
                <ele>82.330078</ele>
                <time>2012-07-29T04:02:27Z</time>
            </trkpt>
            <trkpt lon="101.048613" lat="13.191468">
                <ele>80.407471</ele>
                <time>2012-07-29T04:02:58Z</time>
            </trkpt>
            <trkpt lon="101.048788" lat="13.191548">
                <ele>80.888184</ele>
                <time>2012-07-29T04:03:03Z</time>
            </trkpt>
            <trkpt lon="101.050128" lat="13.191565">
                <ele>81.849365</ele>
                <time>2012-07-29T04:03:38Z</time>
            </trkpt>
            <trkpt lon="101.051912" lat="13.192017">
                <ele>89.059326</ele>
                <time>2012-07-29T04:04:40Z</time>
            </trkpt>
            <trkpt lon="101.053009" lat="13.192151">
                <ele>88.578735</ele>
                <time>2012-07-29T04:06:17Z</time>
            </trkpt>
            <trkpt lon="101.053081" lat="13.192123">
                <ele>84.733398</ele>
                <time>2012-07-29T04:07:45Z</time>
            </trkpt>
            <trkpt lon="101.053076" lat="13.192107">
                <ele>79.446045</ele>
                <time>2012-07-29T04:08:30Z</time>
            </trkpt>
            <trkpt lon="101.053719" lat="13.193444">
                <ele>75.600830</ele>
                <time>2012-07-29T04:09:27Z</time>
            </trkpt>
            <trkpt lon="101.054004" lat="13.193537">
                <ele>79.446045</ele>
                <time>2012-07-29T04:09:47Z</time>
            </trkpt>
            <trkpt lon="101.054241" lat="13.193532">
                <ele>84.252685</ele>
                <time>2012-07-29T04:10:38Z</time>
            </trkpt>
            <trkpt lon="101.054425" lat="13.193357">
                <ele>87.136597</ele>
                <time>2012-07-29T04:10:53Z</time>
            </trkpt>
            <trkpt lon="101.054790" lat="13.193084">
                <ele>88.578735</ele>
                <time>2012-07-29T04:11:08Z</time>
            </trkpt>
            <trkpt lon="101.055339" lat="13.192903">
                <ele>90.020630</ele>
                <time>2012-07-29T04:11:27Z</time>
            </trkpt>
            <trkpt lon="101.057347" lat="13.193042">
                <ele>93.385132</ele>
                <time>2012-07-29T04:12:23Z</time>
            </trkpt>
            <trkpt lon="101.059184" lat="13.193268">
                <ele>90.501343</ele>
                <time>2012-07-29T04:13:10Z</time>
            </trkpt>
            <trkpt lon="101.059759" lat="13.193384">
                <ele>94.827148</ele>
                <time>2012-07-29T04:13:37Z</time>
            </trkpt>
            <trkpt lon="101.060492" lat="13.193484">
                <ele>94.827148</ele>
                <time>2012-07-29T04:14:08Z</time>
            </trkpt>
            <trkpt lon="101.062174" lat="13.193821">
                <ele>93.865845</ele>
                <time>2012-07-29T04:15:08Z</time>
            </trkpt>
            <trkpt lon="101.062762" lat="13.193995">
                <ele>93.865845</ele>
                <time>2012-07-29T04:15:28Z</time>
            </trkpt>
            <trkpt lon="101.063809" lat="13.194010">
                <ele>114.534180</ele>
                <time>2012-07-29T04:17:08Z</time>
            </trkpt>
            <trkpt lon="101.064736" lat="13.194184">
                <ele>119.340820</ele>
                <time>2012-07-29T04:18:24Z</time>
            </trkpt>
            <trkpt lon="101.065238" lat="13.194053">
                <ele>120.302124</ele>
                <time>2012-07-29T04:18:47Z</time>
            </trkpt>
            <trkpt lon="101.065734" lat="13.193289">
                <ele>121.263550</ele>
                <time>2012-07-29T04:19:21Z</time>
            </trkpt>
            <trkpt lon="101.066491" lat="13.192300">
                <ele>118.379395</ele>
                <time>2012-07-29T04:19:51Z</time>
            </trkpt>
            <trkpt lon="101.067800" lat="13.192068">
                <ele>120.302124</ele>
                <time>2012-07-29T04:20:54Z</time>
            </trkpt>
            <trkpt lon="101.068425" lat="13.192195">
                <ele>125.589355</ele>
                <time>2012-07-29T04:21:26Z</time>
            </trkpt>
            <trkpt lon="101.068892" lat="13.192347">
                <ele>126.069946</ele>
                <time>2012-07-29T04:21:41Z</time>
            </trkpt>
            <trkpt lon="101.070116" lat="13.192105">
                <ele>125.589355</ele>
                <time>2012-07-29T04:22:40Z</time>
            </trkpt>
            <trkpt lon="101.070376" lat="13.191894">
                <ele>129.434692</ele>
                <time>2012-07-29T04:22:57Z</time>
            </trkpt>
            <trkpt lon="101.070726" lat="13.191449">
                <ele>127.031372</ele>
                <time>2012-07-29T04:23:22Z</time>
            </trkpt>
            <trkpt lon="101.071252" lat="13.191230">
                <ele>127.031372</ele>
                <time>2012-07-29T04:24:59Z</time>
            </trkpt>
            <trkpt lon="101.071325" lat="13.191253">
                <ele>122.705444</ele>
                <time>2012-07-29T04:25:12Z</time>
            </trkpt>
            <trkpt lon="101.071381" lat="13.191118">
                <ele>119.340820</ele>
                <time>2012-07-29T04:25:33Z</time>
            </trkpt>
            <trkpt lon="101.072983" lat="13.190221">
                <ele>132.318603</ele>
                <time>2012-07-29T04:27:45Z</time>
            </trkpt>
            <trkpt lon="101.073841" lat="13.189707">
                <ele>132.799316</ele>
                <time>2012-07-29T04:28:31Z</time>
            </trkpt>
            <trkpt lon="101.074165" lat="13.189343">
                <ele>131.837891</ele>
                <time>2012-07-29T04:28:46Z</time>
            </trkpt>
            <trkpt lon="101.074230" lat="13.188439">
                <ele>128.954102</ele>
                <time>2012-07-29T04:29:08Z</time>
            </trkpt>
            <trkpt lon="101.074453" lat="13.188236">
                <ele>127.511963</ele>
                <time>2012-07-29T04:29:14Z</time>
            </trkpt>
            <trkpt lon="101.076626" lat="13.187973">
                <ele>135.683106</ele>
                <time>2012-07-29T04:30:15Z</time>
            </trkpt>
            <trkpt lon="101.078553" lat="13.188349">
                <ele>134.721924</ele>
                <time>2012-07-29T04:31:10Z</time>
            </trkpt>
            <trkpt lon="101.079246" lat="13.188460">
                <ele>132.318603</ele>
                <time>2012-07-29T04:31:26Z</time>
            </trkpt>
            <trkpt lon="101.081099" lat="13.189269">
                <ele>131.837891</ele>
                <time>2012-07-29T04:32:17Z</time>
            </trkpt>
            <trkpt lon="101.082285" lat="13.189343">
                <ele>140.489868</ele>
                <time>2012-07-29T04:33:25Z</time>
            </trkpt>
            <trkpt lon="101.083506" lat="13.189487">
                <ele>138.086548</ele>
                <time>2012-07-29T04:34:06Z</time>
            </trkpt>
            <trkpt lon="101.083852" lat="13.187952">
                <ele>150.103027</ele>
                <time>2012-07-29T04:36:02Z</time>
            </trkpt>
            <trkpt lon="101.084358" lat="13.187366">
                <ele>158.754761</ele>
                <time>2012-07-29T04:37:10Z</time>
            </trkpt>
            <trkpt lon="101.083743" lat="13.186592">
                <ele>159.716186</ele>
                <time>2012-07-29T04:37:55Z</time>
            </trkpt>
            <trkpt lon="101.083738" lat="13.186329">
                <ele>158.754761</ele>
                <time>2012-07-29T04:38:12Z</time>
            </trkpt>
            <trkpt lon="101.083495" lat="13.186067">
                <ele>156.351562</ele>
                <time>2012-07-29T04:38:27Z</time>
            </trkpt>
            <trkpt lon="101.082919" lat="13.185177">
                <ele>143.854370</ele>
                <time>2012-07-29T04:39:07Z</time>
            </trkpt>
            <trkpt lon="101.082286" lat="13.182557">
                <ele>127.511963</ele>
                <time>2012-07-29T04:41:07Z</time>
            </trkpt>
            <trkpt lon="101.081415" lat="13.180568">
                <ele>118.379395</ele>
                <time>2012-07-29T04:42:36Z</time>
            </trkpt>
            <trkpt lon="101.081268" lat="13.179487">
                <ele>116.937500</ele>
                <time>2012-07-29T04:44:06Z</time>
            </trkpt>
            <trkpt lon="101.081536" lat="13.179251">
                <ele>114.534180</ele>
                <time>2012-07-29T04:44:35Z</time>
            </trkpt>
            <trkpt lon="101.081282" lat="13.178505">
                <ele>113.092285</ele>
                <time>2012-07-29T04:45:01Z</time>
            </trkpt>
            <trkpt lon="101.081580" lat="13.177617">
                <ele>112.130981</ele>
                <time>2012-07-29T04:45:36Z</time>
            </trkpt>
            <trkpt lon="101.082063" lat="13.177316">
                <ele>119.340820</ele>
                <time>2012-07-29T04:46:19Z</time>
            </trkpt>
            <trkpt lon="101.082161" lat="13.175209">
                <ele>114.534180</ele>
                <time>2012-07-29T04:47:52Z</time>
            </trkpt>
            <trkpt lon="101.081616" lat="13.174394">
                <ele>112.130981</ele>
                <time>2012-07-29T04:48:16Z</time>
            </trkpt>
            <trkpt lon="101.081642" lat="13.173670">
                <ele>107.805054</ele>
                <time>2012-07-29T04:48:31Z</time>
            </trkpt>
            <trkpt lon="101.081454" lat="13.173191">
                <ele>108.285645</ele>
                <time>2012-07-29T04:48:44Z</time>
            </trkpt>
            <trkpt lon="101.081183" lat="13.172737">
                <ele>105.882446</ele>
                <time>2012-07-29T04:48:56Z</time>
            </trkpt>
            <trkpt lon="101.081505" lat="13.172049">
                <ele>102.998291</ele>
                <time>2012-07-29T04:49:15Z</time>
            </trkpt>
            <trkpt lon="101.081184" lat="13.170844">
                <ele>99.153076</ele>
                <time>2012-07-29T04:49:42Z</time>
            </trkpt>
            <trkpt lon="101.081155" lat="13.170670">
                <ele>98.191895</ele>
                <time>2012-07-29T04:49:46Z</time>
            </trkpt>
            <trkpt lon="101.081588" lat="13.168363">
                <ele>96.749878</ele>
                <time>2012-07-29T04:50:42Z</time>
            </trkpt>
            <trkpt lon="101.083024" lat="13.169063">
                <ele>99.153076</ele>
                <time>2012-07-29T04:51:23Z</time>
            </trkpt>
            <trkpt lon="101.083760" lat="13.169262">
                <ele>101.075684</ele>
                <time>2012-07-29T04:51:41Z</time>
            </trkpt>
            <trkpt lon="101.084570" lat="13.169342">
                <ele>102.517700</ele>
                <time>2012-07-29T04:52:00Z</time>
            </trkpt>
            <trkpt lon="101.086865" lat="13.169093">
                <ele>108.285645</ele>
                <time>2012-07-29T04:52:57Z</time>
            </trkpt>
            <trkpt lon="101.087814" lat="13.168916">
                <ele>109.246948</ele>
                <time>2012-07-29T04:53:26Z</time>
            </trkpt>
            <trkpt lon="101.087876" lat="13.168347">
                <ele>105.882446</ele>
                <time>2012-07-29T04:53:44Z</time>
            </trkpt>
            <trkpt lon="101.087311" lat="13.168056">
                <ele>104.921020</ele>
                <time>2012-07-29T04:54:06Z</time>
            </trkpt>
            <trkpt lon="101.087196" lat="13.167632">
                <ele>109.727661</ele>
                <time>2012-07-29T04:54:45Z</time>
            </trkpt>
            <trkpt lon="101.087175" lat="13.167679">
                <ele>103.959717</ele>
                <time>2012-07-29T04:55:13Z</time>
            </trkpt>
            <trkpt lon="101.087322" lat="13.167297">
                <ele>106.843628</ele>
                <time>2012-07-29T04:55:38Z</time>
            </trkpt>
            <trkpt lon="101.087271" lat="13.167004">
                <ele>111.169556</ele>
                <time>2012-07-29T04:56:06Z</time>
            </trkpt>
            <trkpt lon="101.087516" lat="13.166699">
                <ele>115.495605</ele>
                <time>2012-07-29T04:56:42Z</time>
            </trkpt>
            <trkpt lon="101.087542" lat="13.166505">
                <ele>117.418213</ele>
                <time>2012-07-29T04:56:55Z</time>
            </trkpt>
            <trkpt lon="101.087326" lat="13.166488">
                <ele>118.379395</ele>
                <time>2012-07-29T04:57:09Z</time>
            </trkpt>
            <trkpt lon="101.086446" lat="13.167009">
                <ele>119.340820</ele>
                <time>2012-07-29T04:58:26Z</time>
            </trkpt>
            <trkpt lon="101.086561" lat="13.167522">
                <ele>122.705444</ele>
                <time>2012-07-29T05:02:15Z</time>
            </trkpt>
            <trkpt lon="101.086440" lat="13.167068">
                <ele>118.379395</ele>
                <time>2012-07-29T05:04:36Z</time>
            </trkpt>
            <trkpt lon="101.086553" lat="13.166872">
                <ele>119.340820</ele>
                <time>2012-07-29T05:04:55Z</time>
            </trkpt>
            <trkpt lon="101.086601" lat="13.166836">
                <ele>118.379395</ele>
                <time>2012-07-29T05:05:10Z</time>
            </trkpt>
        </trkseg>
    </trk>
</gpx>